Time;durP1;ratioP1;P1;durP2;ratioP2;P2;SDS_P1;SDS_P2;PMS_P1;PMS_P2;Temp;Humidity;BMP_temperature;BMP_pressure;BME280_temperature;BME280_humidity;BME280_pressure;Samples;Min_cycle;Max_cycle;Signal;HPM_P1;HPM_P2
2022/10/09 00:01:33;;;;;;;2.50;2.20;;;8.20;59.50;;;;;;5035508;28;20683;-80
2022/10/09 00:04:01;;;;;;;4.97;2.47;;;8.20;99.90;;;;;;5040896;28;20197;-80
2022/10/09 00:06:33;;;;;;;5.30;2.42;;;8.10;99.90;;;;;;5039899;28;20205;-78
2022/10/09 00:09:04;;;;;;;3.80;2.42;;;8.10;99.90;;;;;;5042301;28;20253;-78
2022/10/09 00:11:36;;;;;;;3.55;2.30;;;8.00;99.90;;;;;;5038934;28;20217;-77
2022/10/09 00:14:04;;;;;;;4.97;2.53;;;8.10;99.90;;;;;;5041775;28;20185;-78
2022/10/09 00:16:32;;;;;;;3.38;2.47;;;8.00;99.90;;;;;;5052379;28;20207;-80
2022/10/09 00:19:02;;;;;;;12.65;3.38;;;8.00;99.90;;;;;;5045230;28;20197;-80
2022/10/09 00:21:33;;;;;;;3.75;2.30;;;7.90;99.90;;;;;;5045487;28;20220;-78
2022/10/09 00:24:04;;;;;;;5.45;2.35;;;7.90;99.90;;;;;;5047234;28;20204;-78
2022/10/09 00:26:33;;;;;;;4.80;2.72;;;7.90;99.90;;;;;;5042949;28;20201;-78
2022/10/09 00:29:01;;;;;;;5.40;2.30;;;7.90;99.90;;;;;;5036076;28;20194;-78
2022/10/09 00:31:29;;;;;;;14.15;2.40;;;7.80;99.90;;;;;;5041236;28;20955;-79
2022/10/09 00:33:58;;;;;;;13.70;3.10;;;7.80;99.90;;;;;;5033104;28;20193;-79
2022/10/09 00:36:27;;;;;;;5.18;2.70;;;7.70;99.90;;;;;;5044321;28;20231;-79
2022/10/09 00:38:57;;;;;;;3.92;2.67;;;7.70;99.90;;;;;;5038072;28;20180;-78
2022/10/09 00:41:27;;;;;;;4.03;2.63;;;7.70;99.90;;;;;;5044609;28;20209;-78
2022/10/09 00:43:59;;;;;;;3.45;2.58;;;7.60;99.90;;;;;;5045599;28;20572;-78
2022/10/09 00:46:33;;;;;;;5.45;2.75;;;7.60;99.90;;;;;;5045655;28;20193;-78
2022/10/09 00:49:09;;;;;;;2.13;1.90;;;7.50;99.90;;;;;;5052228;28;20173;-76
2022/10/09 00:51:38;;;;;;;5.25;2.40;;;7.50;99.90;;;;;;5058634;28;20212;-76
2022/10/09 00:54:11;;;;;;;5.60;2.85;;;7.40;99.90;;;;;;5058367;28;20272;-76
2022/10/09 00:56:40;;;;;;;7.88;2.83;;;7.40;99.90;;;;;;5052026;28;20174;-76
2022/10/09 00:59:09;;;;;;;4.20;2.50;;;7.30;99.90;;;;;;5038594;28;20177;-76
2022/10/09 01:01:39;;;;;;;4.15;2.28;;;7.30;99.90;;;;;;5050121;28;20221;-78
2022/10/09 01:04:07;;;;;;;6.20;3.08;;;7.20;99.90;;;;;;5035421;28;20864;-78
2022/10/09 01:06:57;;;;;;;5.20;3.08;;;7.30;99.90;;;;;;5030522;28;20193;-78
2022/10/09 01:09:36;;;;;;;4.90;2.65;;;7.40;99.90;;;;;;5039046;28;20192;-78
2022/10/09 01:12:12;;;;;;;4.57;2.95;;;7.40;99.90;;;;;;5041514;28;20255;-77
2022/10/09 01:14:48;;;;;;;5.90;3.03;;;7.40;99.90;;;;;;5041731;28;20561;-78
2022/10/09 01:17:24;;;;;;;4.05;2.50;;;7.40;99.90;;;;;;5042379;28;20181;-79
2022/10/09 01:20:11;;;;;;;11.30;3.08;;;7.40;99.90;;;;;;5039032;28;20216;-79
2022/10/09 01:22:52;;;;;;;2.97;2.67;;;7.40;99.90;;;;;;5047587;28;20201;-78
2022/10/09 01:25:31;;;;;;;5.57;2.85;;;7.30;99.90;;;;;;5048580;28;20259;-77
2022/10/09 01:28:02;;;;;;;7.30;3.53;;;7.30;99.90;;;;;;5051389;28;20208;-77
2022/10/09 01:30:32;;;;;;;4.90;2.30;;;7.20;99.90;;;;;;5047846;28;20221;-76
2022/10/09 01:33:01;;;;;;;10.65;2.75;;;7.20;99.90;;;;;;5044818;28;20197;-78
2022/10/09 01:35:30;;;;;;;5.13;2.20;;;7.10;99.90;;;;;;5061778;28;20283;-78
2022/10/09 01:38:01;;;;;;;5.68;2.55;;;7.10;99.90;;;;;;5045088;28;20188;-78
2022/10/09 01:40:30;;;;;;;4.88;2.67;;;7.10;99.90;;;;;;5028058;28;20270;-79
2022/10/09 01:43:01;;;;;;;2.75;2.13;;;7.10;99.90;;;;;;5040727;28;20204;-77
2022/10/09 01:45:38;;;;;;;5.43;2.47;;;7.00;99.90;;;;;;5046099;28;20247;-78
2022/10/09 01:48:08;;;;;;;2.67;2.40;;;7.00;99.90;;;;;;5036187;28;20193;-78
2022/10/09 01:50:42;;;;;;;4.63;3.10;;;7.10;99.90;;;;;;5031232;28;20262;-79
2022/10/09 01:53:14;;;;;;;3.13;2.30;;;7.10;99.90;;;;;;5034582;28;20221;-79
2022/10/09 01:55:48;;;;;;;5.78;2.35;;;7.00;99.90;;;;;;5044316;28;20205;-79
2022/10/09 01:58:23;;;;;;;6.28;2.75;;;7.00;99.90;;;;;;5029653;28;20271;-78
2022/10/09 02:01:02;;;;;;;3.60;3.22;;;7.00;99.90;;;;;;5018107;28;20222;-77
2022/10/09 02:03:32;;;;;;;7.00;2.72;;;7.00;99.90;;;;;;5042030;28;20193;-78
2022/10/09 02:06:03;;;;;;;5.03;2.47;;;7.00;99.90;;;;;;5058111;28;20200;-78
2022/10/09 02:08:34;;;;;;;8.73;2.75;;;7.00;99.90;;;;;;5041989;28;20201;-78
2022/10/09 02:11:03;;;;;;;6.97;2.35;;;7.00;99.90;;;;;;5053192;28;20213;-78
2022/10/09 02:13:35;;;;;;;3.78;2.35;;;7.00;99.90;;;;;;5031793;28;20261;-78
2022/10/09 02:16:13;;;;;;;3.08;2.35;;;7.00;99.90;;;;;;5034186;28;20204;-77
2022/10/09 02:18:45;;;;;;;3.30;2.05;;;7.00;99.90;;;;;;5050267;28;20193;-77
2022/10/09 02:21:18;;;;;;;3.95;2.67;;;7.00;99.90;;;;;;5054754;28;20215;-77
2022/10/09 02:23:50;;;;;;;5.78;2.17;;;7.00;99.90;;;;;;5049425;28;20251;-77
2022/10/09 02:26:19;;;;;;;6.72;3.00;;;7.00;99.90;;;;;;5048620;28;20195;-78
2022/10/09 02:28:49;;;;;;;3.08;2.35;;;7.00;99.90;;;;;;5048890;28;20472;-78
2022/10/09 02:31:23;;;;;;;7.50;2.58;;;7.00;99.90;;;;;;5052397;28;20213;-78
2022/10/09 02:33:56;;;;;;;3.63;2.20;;;7.00;99.90;;;;;;5036115;28;20194;-78
2022/10/09 02:36:25;;;;;;;1.98;1.65;;;7.00;99.90;;;;;;5027290;28;20210;-78
2022/10/09 02:38:55;;;;;;;6.00;2.20;;;6.90;99.90;;;;;;5030664;28;20191;-78
2022/10/09 02:41:24;;;;;;;6.40;2.72;;;7.00;99.90;;;;;;5037343;28;20218;-76
2022/10/09 02:43:54;;;;;;;4.75;2.28;;;6.90;99.90;;;;;;5041334;28;20646;-78
2022/10/09 02:46:23;;;;;;;3.80;3.00;;;6.80;99.90;;;;;;5039800;28;20189;-78
2022/10/09 02:48:52;;;;;;;8.10;2.42;;;6.80;99.90;;;;;;5032984;28;20255;-79
2022/10/09 02:51:21;;;;;;;10.63;2.95;;;6.70;99.90;;;;;;5061348;22;20291;-68
2022/10/09 02:53:52;;;;;;;4.85;2.65;;;6.80;99.90;;;;;;5032790;28;20580;-68
2022/10/09 02:56:20;;;;;;;22.73;3.10;;;6.80;99.90;;;;;;5021147;28;20625;-68
2022/10/09 02:58:49;;;;;;;5.13;1.73;;;6.70;99.90;;;;;;5013200;28;20225;-68
2022/10/09 03:01:19;;;;;;;4.03;2.88;;;6.80;99.90;;;;;;5013071;28;20726;-68
2022/10/09 03:03:48;;;;;;;11.02;2.20;;;6.70;99.90;;;;;;5013874;28;20225;-68
2022/10/09 03:06:19;;;;;;;5.32;2.83;;;6.70;99.90;;;;;;5037957;23;20640;-68
2022/10/09 03:08:49;;;;;;;4.90;2.50;;;6.70;99.90;;;;;;5036768;28;20188;-69
2022/10/09 03:11:19;;;;;;;4.55;2.50;;;6.70;99.90;;;;;;5044099;28;20186;-69
2022/10/09 03:13:48;;;;;;;3.25;2.05;;;6.70;99.90;;;;;;5035052;28;20197;-68
2022/10/09 03:16:21;;;;;;;2.88;2.13;;;6.70;99.90;;;;;;5023888;28;20573;-69
2022/10/09 03:18:51;;;;;;;3.20;2.30;;;6.60;99.90;;;;;;5031624;28;20208;-68
2022/10/09 03:21:22;;;;;;;13.95;2.10;;;6.60;99.90;;;;;;5024822;28;20773;-69
2022/10/09 03:23:52;;;;;;;3.05;2.25;;;6.60;99.90;;;;;;5027433;28;20679;-68
2022/10/09 03:26:22;;;;;;;14.70;3.28;;;6.70;99.90;;;;;;5026684;28;20229;-68
2022/10/09 03:28:52;;;;;;;9.85;3.08;;;6.70;99.90;;;;;;5020684;28;20256;-69
2022/10/09 03:31:24;;;;;;;5.15;3.63;;;6.60;99.90;;;;;;5039117;28;20193;-68
2022/10/09 03:34:13;;;;;;;4.32;2.75;;;6.60;99.90;;;;;;5027754;28;20204;-70
2022/10/09 03:36:42;;;;;;;10.07;3.05;;;6.60;99.90;;;;;;5047108;28;20353;-69
2022/10/09 03:39:11;;;;;;;6.88;3.35;;;6.60;99.90;;;;;;5045430;28;20196;-68
2022/10/09 03:41:39;;;;;;;2.65;2.20;;;6.60;99.90;;;;;;5035869;28;20196;-68
2022/10/09 03:44:08;;;;;;;3.95;2.55;;;6.60;99.90;;;;;;5046676;28;20648;-69
2022/10/09 03:46:38;;;;;;;4.88;2.83;;;6.60;99.90;;;;;;5034397;28;20290;-69
2022/10/09 03:49:07;;;;;;;5.45;3.60;;;6.60;99.90;;;;;;5033759;28;20260;-68
2022/10/09 03:51:36;;;;;;;7.35;2.22;;;6.50;99.90;;;;;;5035232;28;20197;-69
2022/10/09 03:54:05;;;;;;;8.70;3.30;;;6.40;99.90;;;;;;5047032;28;20663;-69
2022/10/09 03:56:34;;;;;;;13.23;3.63;;;6.40;99.90;;;;;;5032154;28;20260;-68
2022/10/09 03:59:06;;;;;;;8.52;2.58;;;6.30;99.90;;;;;;5040077;28;20212;-68
2022/10/09 04:01:35;;;;;;;7.38;1.92;;;6.30;99.90;;;;;;5033255;28;20197;-70
2022/10/09 04:04:05;;;;;;;2.53;2.05;;;6.30;99.90;;;;;;5032906;28;20193;-69
2022/10/09 04:06:33;;;;;;;6.43;2.30;;;6.30;99.90;;;;;;5033087;28;20233;-70
2022/10/09 04:09:02;;;;;;;6.68;2.75;;;6.30;99.90;;;;;;5031777;28;20284;-70
2022/10/09 04:11:31;;;;;;;4.40;2.33;;;6.30;99.90;;;;;;5033285;28;20181;-69
2022/10/09 04:14:00;;;;;;;6.93;2.63;;;6.30;99.90;;;;;;5032979;28;20206;-68
2022/10/09 04:16:29;;;;;;;7.00;3.08;;;6.20;99.90;;;;;;5035595;28;20271;-70
2022/10/09 04:18:58;;;;;;;5.15;2.30;;;6.20;99.90;;;;;;5036039;28;20236;-69
2022/10/09 04:21:28;;;;;;;9.43;2.00;;;6.10;99.90;;;;;;5037887;28;20220;-68
2022/10/09 04:23:56;;;;;;;6.30;2.58;;;6.20;99.90;;;;;;5038274;28;20186;-69
2022/10/09 04:26:25;;;;;;;7.65;3.00;;;6.20;99.90;;;;;;5043196;28;20232;-68
2022/10/09 04:28:54;;;;;;;6.35;3.83;;;6.30;99.90;;;;;;5040394;28;20197;-69
2022/10/09 04:31:22;;;;;;;10.02;3.45;;;6.40;99.90;;;;;;5041426;28;20224;-68
2022/10/09 04:33:51;;;;;;;17.08;3.08;;;6.30;99.90;;;;;;5041153;28;20280;-69
2022/10/09 04:36:19;;;;;;;3.58;2.83;;;6.40;99.90;;;;;;5037736;28;20296;-69
2022/10/09 04:38:51;;;;;;;3.95;2.42;;;6.40;99.90;;;;;;5034571;28;20189;-70
2022/10/09 04:41:20;;;;;;;7.22;2.40;;;6.30;99.90;;;;;;5034792;28;20265;-70
2022/10/09 04:43:48;;;;;;;8.13;2.55;;;6.30;99.90;;;;;;5036611;28;20190;-70
2022/10/09 04:46:17;;;;;;;3.53;2.90;;;6.20;99.90;;;;;;5036767;28;20279;-70
2022/10/09 04:48:46;;;;;;;10.20;3.42;;;6.20;99.90;;;;;;5039353;28;20196;-70
2022/10/09 04:51:16;;;;;;;10.50;3.83;;;6.20;99.90;;;;;;5039940;28;20248;-69
2022/10/09 04:53:46;;;;;;;8.27;2.88;;;6.10;99.90;;;;;;5037639;28;20233;-68
2022/10/09 04:56:17;;;;;;;5.47;2.63;;;6.20;99.90;;;;;;5036578;28;20632;-69
2022/10/09 04:58:47;;;;;;;5.90;2.47;;;6.20;99.90;;;;;;5035094;28;20201;-70
2022/10/09 05:01:18;;;;;;;4.32;2.80;;;6.10;99.90;;;;;;5035838;28;20360;-70
2022/10/09 05:03:47;;;;;;;15.23;2.90;;;6.20;99.90;;;;;;5037397;28;20259;-69
2022/10/09 05:06:17;;;;;;;6.25;2.60;;;6.20;99.90;;;;;;5038026;28;20231;-70
2022/10/09 05:08:46;;;;;;;13.90;3.58;;;6.20;99.90;;;;;;5038205;28;20284;-69
2022/10/09 05:11:20;;;;;;;13.75;3.10;;;6.20;99.90;;;;;;5044332;28;20189;-69
2022/10/09 05:13:51;;;;;;;3.95;2.13;;;6.10;99.90;;;;;;5043476;28;20205;-69
2022/10/09 05:16:21;;;;;;;4.93;2.80;;;6.10;99.90;;;;;;5044113;28;20206;-69
2022/10/09 05:18:51;;;;;;;5.20;3.28;;;6.10;99.90;;;;;;5046118;28;20201;-70
2022/10/09 05:21:21;;;;;;;8.20;2.83;;;6.10;99.90;;;;;;5036200;28;20174;-69
2022/10/09 05:23:50;;;;;;;7.55;3.47;;;6.10;99.90;;;;;;5041013;28;20281;-68
2022/10/09 05:26:21;;;;;;;6.28;3.10;;;6.20;99.90;;;;;;5044249;28;20240;-71
2022/10/09 05:28:51;;;;;;;7.03;3.03;;;6.30;99.90;;;;;;5048449;28;20184;-70
2022/10/09 05:31:21;;;;;;;5.28;2.40;;;6.30;99.90;;;;;;5044345;28;20321;-69
2022/10/09 05:33:50;;;;;;;11.60;3.10;;;6.30;99.90;;;;;;5043417;28;20197;-70
2022/10/09 05:36:19;;;;;;;10.77;3.75;;;6.30;99.90;;;;;;5040419;28;20243;-69
2022/10/09 05:38:48;;;;;;;4.82;3.13;;;6.30;99.90;;;;;;5041466;28;20243;-70
2022/10/09 05:41:18;;;;;;;6.15;3.20;;;6.30;99.90;;;;;;5037758;28;20272;-68
2022/10/09 05:43:49;;;;;;;8.20;3.67;;;6.40;99.90;;;;;;5032924;28;20656;-69
2022/10/09 05:46:19;;;;;;;4.82;3.03;;;6.40;99.90;;;;;;5032954;28;20211;-69
2022/10/09 05:48:52;;;;;;;6.93;2.85;;;6.30;99.90;;;;;;5032802;28;20208;-69
2022/10/09 05:51:23;;;;;;;2.97;2.72;;;6.40;99.90;;;;;;5030019;28;20186;-70
2022/10/09 05:53:52;;;;;;;6.03;3.72;;;6.50;99.90;;;;;;5032305;28;20261;-70
2022/10/09 05:56:23;;;;;;;7.80;3.22;;;6.50;99.90;;;;;;5031830;28;20209;-70
2022/10/09 05:58:54;;;;;;;8.45;3.67;;;6.60;99.90;;;;;;5031991;28;20249;-69
2022/10/09 06:01:26;;;;;;;7.00;3.40;;;6.60;99.90;;;;;;5032196;28;20197;-69
2022/10/09 06:03:56;;;;;;;6.05;3.63;;;6.60;99.90;;;;;;5031542;28;20197;-69
2022/10/09 06:06:27;;;;;;;3.13;2.85;;;6.70;99.90;;;;;;5031033;28;20229;-68
2022/10/09 06:08:56;;;;;;;5.97;3.97;;;6.70;99.90;;;;;;5032161;28;20174;-68
2022/10/09 06:11:27;;;;;;;8.73;2.90;;;6.80;99.90;;;;;;5028688;28;20190;-68
2022/10/09 06:13:58;;;;;;;7.75;3.13;;;6.90;99.90;;;;;;5030839;28;20657;-68
2022/10/09 06:16:29;;;;;;;7.78;3.30;;;7.00;99.90;;;;;;5030722;28;20216;-69
2022/10/09 06:18:58;;;;;;;6.65;4.15;;;7.10;99.90;;;;;;5030703;28;20176;-69
2022/10/09 06:21:27;;;;;;;7.13;3.78;;;7.10;99.90;;;;;;5030709;28;20193;-69
2022/10/09 06:23:58;;;;;;;3.22;2.67;;;7.20;99.90;;;;;;5030492;28;20189;-70
2022/10/09 06:26:29;;;;;;;9.48;4.57;;;7.30;99.90;;;;;;5036931;28;20225;-68
2022/10/09 06:29:00;;;;;;;12.68;4.18;;;7.40;99.90;;;;;;5030617;28;20193;-68
2022/10/09 06:31:30;;;;;;;9.23;3.92;;;7.50;99.90;;;;;;5031097;28;20207;-68
2022/10/09 06:34:00;;;;;;;7.63;4.30;;;7.60;99.90;;;;;;5029178;28;20228;-69
2022/10/09 06:36:30;;;;;;;6.65;4.40;;;7.70;99.90;;;;;;5030063;28;20231;-67
2022/10/09 06:38:59;;;;;;;11.75;4.70;;;7.80;99.90;;;;;;5029936;28;20581;-68
2022/10/09 06:41:29;;;;;;;9.07;5.03;;;7.90;99.90;;;;;;5030919;28;20204;-69
2022/10/09 06:44:00;;;;;;;11.07;4.90;;;8.00;99.90;;;;;;5024897;28;20185;-67
2022/10/09 06:46:31;;;;;;;7.72;4.22;;;8.00;99.90;;;;;;5050157;28;20259;-69
2022/10/09 06:49:00;;;;;;;16.90;5.15;;;8.20;99.90;;;;;;5033811;28;20244;-68
2022/10/09 06:51:30;;;;;;;8.38;4.90;;;8.30;99.90;;;;;;5010467;28;20595;-69
2022/10/09 06:54:01;;;;;;;10.63;4.53;;;8.30;99.90;;;;;;5010648;28;20212;-68
2022/10/09 06:56:31;;;;;;;16.35;6.47;;;8.40;99.90;;;;;;5016479;28;20209;-69
2022/10/09 06:59:02;;;;;;;10.90;5.72;;;8.50;99.90;;;;;;5030122;28;20177;-68
2022/10/09 07:01:31;;;;;;;8.57;4.90;;;8.60;99.90;;;;;;5030813;28;20228;-70
2022/10/09 07:04:02;;;;;;;9.85;5.20;;;8.60;99.90;;;;;;5034692;28;20647;-69
2022/10/09 07:06:31;;;;;;;14.80;5.63;;;8.80;99.90;;;;;;5013620;28;20624;-69
2022/10/09 07:09:02;;;;;;;4.78;3.50;;;8.80;99.90;;;;;;5043922;28;20663;-69
2022/10/09 07:11:33;;;;;;;8.77;4.90;;;8.90;99.90;;;;;;5048255;28;20260;-69
2022/10/09 07:14:05;;;;;;;7.13;4.38;;;9.00;99.90;;;;;;5034178;28;20193;-69
2022/10/09 07:16:36;;;;;;;12.27;4.90;;;9.20;99.90;;;;;;5027155;28;20214;-70
2022/10/09 07:19:07;;;;;;;8.45;3.88;;;9.30;99.90;;;;;;5014663;28;20194;-68
2022/10/09 07:21:36;;;;;;;8.65;5.97;;;9.40;99.90;;;;;;5021612;28;20216;-68
2022/10/09 07:24:05;;;;;;;9.32;4.15;;;9.60;99.90;;;;;;5047771;28;20196;-68
2022/10/09 07:26:36;;;;;;;8.90;4.20;;;9.70;99.90;;;;;;5036640;28;20289;-68
2022/10/09 07:29:07;;;;;;;9.47;3.73;;;9.70;99.90;;;;;;5053131;28;20173;-68
2022/10/09 07:31:36;;;;;;;8.00;3.10;;;9.80;99.90;;;;;;5036774;28;20523;-69
2022/10/09 07:34:05;;;;;;;9.97;4.30;;;9.90;99.90;;;;;;5013240;28;20427;-68
2022/10/09 07:36:34;;;;;;;16.40;3.97;;;10.00;99.90;;;;;;5026705;28;20837;-69
2022/10/09 07:39:04;;;;;;;9.60;3.87;;;10.00;99.90;;;;;;5013176;28;20425;-68
2022/10/09 07:41:33;;;;;;;10.30;4.30;;;10.10;99.90;;;;;;5019941;28;20402;-70
2022/10/09 07:44:02;;;;;;;5.53;4.33;;;10.10;99.90;;;;;;5053953;28;20518;-69
2022/10/09 07:46:32;;;;;;;12.50;3.43;;;10.20;99.90;;;;;;5036937;28;20973;-70
2022/10/09 07:49:02;;;;;;;6.70;3.30;;;10.30;99.90;;;;;;5033881;28;20737;-69
2022/10/09 07:51:31;;;;;;;9.60;4.20;;;10.50;99.90;;;;;;5022904;28;20487;-68
2022/10/09 07:54:01;;;;;;;6.83;2.67;;;10.60;99.90;;;;;;5024929;28;20580;-69
2022/10/09 07:56:32;;;;;;;9.73;3.43;;;10.70;99.90;;;;;;5019166;28;20535;-69
2022/10/09 07:59:02;;;;;;;4.90;2.47;;;10.90;99.90;;;;;;5053632;28;20414;-68
2022/10/09 08:01:34;;;;;;;8.23;3.17;;;11.00;57.20;;;;;;5044386;28;20771;-69
2022/10/09 08:04:03;;;;;;;7.07;3.50;;;11.00;5.20;;;;;;5037759;28;20481;-69
2022/10/09 08:06:32;;;;;;;4.50;3.23;;;11.00;1.00;;;;;;5030233;28;20539;-69
2022/10/09 08:09:03;;;;;;;7.87;3.77;;;11.10;1.00;;;;;;5039462;28;20451;-69
2022/10/09 08:11:32;;;;;;;5.87;2.70;;;11.00;99.90;;;;;;5049521;28;20428;-70
2022/10/09 08:14:00;;;;;;;8.80;2.90;;;11.00;99.90;;;;;;5024770;28;20425;-70
2022/10/09 08:16:31;;;;;;;5.03;2.70;;;11.00;99.90;;;;;;5023841;28;20452;-70
2022/10/09 08:19:02;;;;;;;10.43;3.57;;;11.10;99.90;;;;;;5037718;28;20518;-70
2022/10/09 08:21:31;;;;;;;5.33;3.13;;;11.20;99.90;;;;;;5035275;28;20506;-70
2022/10/09 08:24:00;;;;;;;5.07;3.27;;;11.30;99.90;;;;;;5038898;28;20402;-69
2022/10/09 08:26:30;;;;;;;6.47;3.00;;;11.50;99.90;;;;;;5028657;28;20777;-71
2022/10/09 08:29:01;;;;;;;9.70;5.43;;;11.50;99.90;;;;;;5042894;28;20441;-70
2022/10/09 08:31:30;;;;;;;8.33;4.57;;;11.50;99.90;;;;;;5038440;28;20470;-71
2022/10/09 08:34:02;;;;;;;9.70;3.53;;;11.60;99.90;;;;;;5050734;28;20437;-68
2022/10/09 08:36:31;;;;;;;9.13;2.53;;;11.80;99.90;;;;;;5056986;28;20482;-69
2022/10/09 08:39:00;;;;;;;6.10;3.10;;;12.00;99.90;;;;;;5057098;28;20477;-70
2022/10/09 08:41:40;;;;;;;8.10;3.97;;;12.10;99.90;;;;;;5051721;28;20449;-70
2022/10/09 08:44:16;;;;;;;13.43;5.30;;;12.20;99.90;;;;;;5035793;28;20415;-71
2022/10/09 08:46:53;;;;;;;8.80;3.77;;;12.40;99.90;;;;;;5036577;28;20483;-69
2022/10/09 08:49:29;;;;;;;8.63;3.20;;;12.40;99.90;;;;;;5033248;28;20436;-71
2022/10/09 08:52:15;;;;;;;7.77;2.77;;;12.40;99.90;;;;;;5055825;22;20922;-65
2022/10/09 08:54:44;;;;;;;6.20;2.80;;;12.40;99.90;;;;;;5039700;28;20480;-65
2022/10/09 08:57:15;;;;;;;10.20;5.07;;;12.50;99.90;;;;;;5031653;28;20805;-65
2022/10/09 08:59:45;;;;;;;11.27;3.47;;;12.70;99.90;;;;;;5047223;28;20950;-66
2022/10/09 09:02:34;;;;;;;10.73;3.60;;;13.00;99.90;;;;;;5036351;28;20451;-67
2022/10/09 09:05:27;;;;;;;5.13;2.80;;;12.90;99.90;;;;;;5047651;28;20475;-68
2022/10/09 09:08:05;;;;;;;11.87;4.40;;;12.90;99.90;;;;;;5063897;28;20541;-67
2022/10/09 09:10:40;;;;;;;12.57;3.40;;;12.90;99.90;;;;;;5057367;28;20497;-66
2022/10/09 09:13:23;;;;;;;5.57;2.87;;;13.00;99.90;;;;;;5052006;28;20437;-67
2022/10/09 09:15:58;;;;;;;3.97;3.10;;;13.20;99.90;;;;;;5051852;28;20473;-67
2022/10/09 09:18:38;;;;;;;8.10;3.40;;;13.50;99.90;;;;;;5053548;28;20484;-67
2022/10/09 09:21:22;;;;;;;6.13;3.10;;;13.40;99.90;;;;;;5045773;28;20496;-66
2022/10/09 09:23:51;;;;;;;4.93;3.63;;;13.40;99.90;;;;;;5045218;28;20424;-67
2022/10/09 09:26:21;;;;;;;6.83;3.37;;;13.70;99.90;;;;;;5043821;28;20490;-67
2022/10/09 09:28:55;;;;;;;6.77;2.77;;;13.90;99.90;;;;;;5045415;28;20526;-67
2022/10/09 09:31:28;;;;;;;3.53;2.03;;;13.90;99.90;;;;;;5037457;28;20453;-66
2022/10/09 09:34:05;;;;;;;3.90;2.83;;;14.00;99.90;;;;;;5063067;28;20425;-67
2022/10/09 09:36:39;;;;;;;5.77;3.27;;;13.80;99.90;;;;;;5071086;28;20447;-65
2022/10/09 09:39:11;;;;;;;5.40;2.93;;;13.90;99.90;;;;;;5066926;28;20837;-66
2022/10/09 09:42:11;;;;;;;9.50;2.73;;;14.00;99.90;;;;;;5043643;28;20430;-67
2022/10/09 09:44:43;;;;;;;7.33;2.50;;;14.10;99.90;;;;;;5064490;28;20462;-67
2022/10/09 09:47:17;;;;;;;8.50;2.80;;;14.20;99.90;;;;;;5043481;28;20486;-68
2022/10/09 09:49:54;;;;;;;3.67;2.17;;;14.40;96.50;;;;;;5045017;28;20443;-67
2022/10/09 09:52:27;;;;;;;5.50;2.43;;;14.50;92.70;;;;;;5048637;28;20813;-66
2022/10/09 09:54:57;;;;;;;6.30;2.50;;;14.80;90.50;;;;;;5057891;28;20454;-67
2022/10/09 09:57:34;;;;;;;8.07;2.23;;;14.60;82.90;;;;;;5041409;28;20402;-67
2022/10/09 10:00:17;;;;;;;19.27;3.67;;;14.60;81.90;;;;;;5043435;28;20763;-66
2022/10/09 10:02:46;;;;;;;11.07;2.47;;;14.70;84.90;;;;;;5070296;28;20778;-67
2022/10/09 10:05:21;;;;;;;6.13;2.10;;;15.00;74.90;;;;;;5065191;28;20461;-67
2022/10/09 10:07:52;;;;;;;6.47;2.73;;;15.00;66.10;;;;;;5050087;28;20466;-66
2022/10/09 10:10:23;;;;;;;7.97;2.53;;;15.20;63.00;;;;;;5048603;28;20404;-66
2022/10/09 10:12:56;;;;;;;7.17;2.40;;;15.20;55.80;;;;;;5032191;28;20424;-66
2022/10/09 10:15:27;;;;;;;7.10;2.63;;;15.20;53.00;;;;;;5055368;28;20446;-67
2022/10/09 10:17:59;;;;;;;11.27;4.10;;;15.30;50.70;;;;;;5043158;28;20402;-67
2022/10/09 10:20:29;;;;;;;5.67;1.87;;;15.40;50.30;;;;;;5045026;28;20909;-67
2022/10/09 10:23:01;;;;;;;3.97;1.80;;;15.50;46.70;;;;;;5042670;28;20398;-66
2022/10/09 10:25:33;;;;;;;4.53;2.10;;;15.80;43.50;;;;;;5030625;28;20500;-67
2022/10/09 10:28:07;;;;;;;6.23;2.03;;;15.70;36.60;;;;;;5059929;28;20414;-66
2022/10/09 10:30:37;;;;;;;11.77;2.47;;;15.80;35.40;;;;;;5056984;28;20435;-67
2022/10/09 10:33:15;;;;;;;4.77;2.67;;;16.00;35.00;;;;;;5050231;28;20534;-66
2022/10/09 10:35:44;;;;;;;9.47;2.50;;;15.90;29.80;;;;;;5030374;28;20724;-66
2022/10/09 10:38:19;;;;;;;6.70;1.97;;;16.00;28.40;;;;;;5045022;28;20412;-67
2022/10/09 10:40:54;;;;;;;6.50;2.20;;;15.90;24.60;;;;;;5058181;28;20426;-67
2022/10/09 10:43:33;;;;;;;5.93;2.50;;;15.90;22.60;;;;;;5036611;28;20744;-67
2022/10/09 10:46:08;;;;;;;4.50;1.70;;;16.00;22.20;;;;;;5043006;28;20476;-66
2022/10/09 10:48:41;;;;;;;6.47;2.40;;;16.10;19.30;;;;;;5052406;28;20416;-67
2022/10/09 10:51:43;;;;;;;6.00;3.30;;;16.10;16.70;;;;;;5063345;28;20420;-67
2022/10/09 10:54:32;;;;;;;3.20;1.80;;;15.90;16.00;;;;;;5057380;28;20422;-67
2022/10/09 10:57:15;;;;;;;7.20;2.80;;;15.50;14.20;;;;;;5044993;28;20565;-67
2022/10/09 10:59:56;;;;;;;3.40;1.70;;;15.40;14.90;;;;;;5051567;28;20480;-67
2022/10/09 11:02:43;;;;;;;4.03;1.40;;;15.40;14.60;;;;;;5037785;28;20445;-66
2022/10/09 11:05:25;;;;;;;2.50;1.20;;;15.60;12.50;;;;;;5045065;28;20434;-67
2022/10/09 11:08:14;;;;;;;4.80;1.23;;;15.80;8.60;;;;;;5043040;28;20486;-66
2022/10/09 11:10:56;;;;;;;5.60;1.53;;;15.80;6.20;;;;;;5067316;28;20479;-67
2022/10/09 11:13:31;;;;;;;6.43;1.57;;;15.50;3.80;;;;;;5046841;28;20393;-66
2022/10/09 11:16:13;;;;;;;6.33;1.47;;;15.40;3.80;;;;;;5048072;28;20544;-66
2022/10/09 11:18:57;;;;;;;4.37;1.70;;;15.30;3.80;;;;;;5036532;28;20411;-67
2022/10/09 11:21:45;;;;;;;5.40;1.50;;;15.50;3.40;;;;;;5060805;28;20433;-66
2022/10/09 11:24:36;;;;;;;4.57;1.20;;;15.50;3.90;;;;;;5060657;28;20924;-67
2022/10/09 11:27:13;;;;;;;5.27;1.50;;;15.40;5.20;;;;;;5043722;28;20447;-67
2022/10/09 11:29:48;;;;;;;6.37;2.80;;;15.30;5.80;;;;;;5062320;28;20407;-67
2022/10/09 11:32:23;;;;;;;7.53;2.17;;;15.40;5.80;;;;;;5049420;28;20493;-67
2022/10/09 11:34:58;;;;;;;2.00;1.37;;;15.50;3.00;;;;;;5035192;28;20447;-67
2022/10/09 11:37:33;;;;;;;3.13;1.23;;;15.70;2.50;;;;;;5047792;28;20438;-66
2022/10/09 11:40:06;;;;;;;1.87;1.20;;;16.00;1.00;;;;;;5060796;28;20501;-66
2022/10/09 11:42:37;;;;;;;2.07;1.30;;;16.20;1.00;;;;;;5047276;28;20441;-66
2022/10/09 11:45:22;;;;;;;6.20;1.93;;;16.30;1.00;;;;;;5051909;28;20445;-66
2022/10/09 11:47:59;;;;;;;7.40;1.53;;;16.40;1.00;;;;;;5034642;28;20423;-67
2022/10/09 11:50:39;;;;;;;6.30;2.17;;;16.70;1.00;;;;;;5038066;28;20418;-65
2022/10/09 11:53:11;;;;;;;4.30;1.30;;;16.90;1.00;;;;;;5069963;28;20516;-66
2022/10/09 11:55:40;;;;;;;6.23;1.60;;;17.10;1.00;;;;;;5049754;28;20456;-66
2022/10/09 11:58:20;;;;;;;7.23;1.83;;;16.90;1.00;;;;;;5049757;28;20490;-66
2022/10/09 12:00:52;;;;;;;4.50;1.20;;;17.10;1.00;;;;;;5034846;28;20460;-67
2022/10/09 12:03:31;;;;;;;4.23;1.60;;;17.30;1.00;;;;;;5051995;28;20526;-67
2022/10/09 12:06:06;;;;;;;3.53;1.23;;;17.20;1.00;;;;;;5051583;28;20424;-67
2022/10/09 12:08:35;;;;;;;3.50;1.50;;;17.10;1.00;;;;;;5043253;28;20877;-67
2022/10/09 12:11:12;;;;;;;5.30;1.47;;;17.20;1.00;;;;;;5038084;28;20415;-67
2022/10/09 12:13:45;;;;;;;3.13;1.80;;;17.30;1.00;;;;;;5041510;28;20889;-68
2022/10/09 12:16:38;;;;;;;3.43;1.57;;;17.20;1.00;;;;;;5060103;28;20558;-67
2022/10/09 12:19:16;;;;;;;6.43;2.57;;;17.00;1.00;;;;;;5041130;28;20432;-67
2022/10/09 12:21:52;;;;;;;2.63;0.93;;;16.80;1.00;;;;;;5052986;28;20418;-67
2022/10/09 12:24:24;;;;;;;8.77;1.30;;;16.70;1.00;;;;;;5065992;28;20425;-67
2022/10/09 12:26:55;;;;;;;3.30;1.13;;;16.70;1.00;;;;;;5049999;28;20398;-67
2022/10/09 12:29:29;;;;;;;7.80;1.60;;;16.40;1.00;;;;;;5060208;28;20458;-67
2022/10/09 12:32:02;;;;;;;4.17;1.20;;;16.30;1.00;;;;;;5068598;28;20454;-66
2022/10/09 12:34:34;;;;;;;2.70;1.73;;;16.50;1.00;;;;;;5053089;28;20387;-66
2022/10/09 12:37:12;;;;;;;8.13;1.60;;;16.90;1.00;;;;;;5040741;28;20529;-66
2022/10/09 12:39:41;;;;;;;6.07;1.00;;;17.00;1.00;;;;;;5041309;28;20402;-66
2022/10/09 12:42:21;;;;;;;3.03;1.20;;;17.20;1.00;;;;;;5064177;28;20454;-68
2022/10/09 12:44:54;;;;;;;5.73;2.60;;;17.50;1.00;;;;;;5048348;28;20521;-68
2022/10/09 12:47:26;;;;;;;6.03;1.30;;;17.30;1.00;;;;;;5039486;28;20427;-70
2022/10/09 12:49:57;;;;;;;7.27;2.20;;;17.20;1.00;;;;;;5052296;28;20430;-68
2022/10/09 12:52:26;;;;;;;5.03;1.40;;;17.20;1.00;;;;;;5061254;28;20458;-68
2022/10/09 12:54:55;;;;;;;7.03;1.57;;;17.00;1.00;;;;;;5041913;28;20486;-68
2022/10/09 12:57:25;;;;;;;8.53;1.90;;;16.80;1.00;;;;;;5057289;28;20469;-67
2022/10/09 12:59:57;;;;;;;2.87;1.60;;;16.50;1.00;;;;;;5058274;28;20804;-68
2022/10/09 13:02:26;;;;;;;6.87;1.63;;;16.30;1.00;;;;;;5052157;28;20860;-69
2022/10/09 13:04:58;;;;;;;3.63;1.30;;;16.10;1.00;;;;;;5048752;28;20481;-70
2022/10/09 13:07:31;;;;;;;4.37;1.40;;;15.90;1.00;;;;;;5039020;28;20782;-68
2022/10/09 13:10:07;;;;;;;6.53;2.60;;;16.10;1.00;;;;;;5034757;28;20434;-68
2022/10/09 13:12:36;;;;;;;6.00;1.20;;;16.30;1.00;;;;;;5046984;28;20485;-67
2022/10/09 13:15:23;;;;;;;4.27;1.87;;;16.50;1.00;;;;;;5045787;28;20533;-68
2022/10/09 13:17:51;;;;;;;3.80;1.50;;;16.50;1.00;;;;;;5045568;28;20935;-67
2022/10/09 13:20:26;;;;;;;3.03;1.60;;;16.60;1.00;;;;;;5046915;28;20756;-70